sensor_id;sensor_type;location;lat;lon;timestamp;temperature;humidity
15617;DHT22;7908;51.688;7.130;2023-09-19T00:01:15;15.10;99.90
15617;DHT22;7908;51.688;7.130;2023-09-19T00:03:47;15.00;99.90
15617;DHT22;7908;51.688;7.130;2023-09-19T00:06:16;15.00;99.90
15617;DHT22;7908;51.688;7.130;2023-09-19T00:08:44;15.00;99.90
15617;DHT22;7908;51.688;7.130;2023-09-19T00:11:15;15.00;99.90
15617;DHT22;7908;51.688;7.130;2023-09-19T00:13:43;15.00;99.90
15617;DHT22;7908;51.688;7.130;2023-09-19T00:16:12;14.90;99.90
15617;DHT22;7908;51.688;7.130;2023-09-19T00:18:43;14.90;99.90
15617;DHT22;7908;51.688;7.130;2023-09-19T00:21:12;14.90;99.90
15617;DHT22;7908;51.688;7.130;2023-09-19T00:23:40;14.90;99.90
15617;DHT22;7908;51.688;7.130;2023-09-19T00:26:09;14.90;99.90
15617;DHT22;7908;51.688;7.130;2023-09-19T00:28:37;14.90;99.90
15617;DHT22;7908;51.688;7.130;2023-09-19T00:31:08;14.90;99.90
15617;DHT22;7908;51.688;7.130;2023-09-19T00:33:36;14.90;99.90
15617;DHT22;7908;51.688;7.130;2023-09-19T00:36:07;14.90;99.90
15617;DHT22;7908;51.688;7.130;2023-09-19T00:38:35;14.80;99.90
15617;DHT22;7908;51.688;7.130;2023-09-19T00:41:04;14.90;99.90
15617;DHT22;7908;51.688;7.130;2023-09-19T00:43:34;14.80;99.90
15617;DHT22;7908;51.688;7.130;2023-09-19T00:46:03;14.90;99.90
15617;DHT22;7908;51.688;7.130;2023-09-19T00:48:38;14.80;99.90
15617;DHT22;7908;51.688;7.130;2023-09-19T00:51:10;14.80;99.90
15617;DHT22;7908;51.688;7.130;2023-09-19T00:53:41;14.80;99.90
15617;DHT22;7908;51.688;7.130;2023-09-19T00:56:14;14.80;99.90
15617;DHT22;7908;51.688;7.130;2023-09-19T00:58:46;14.80;99.90
15617;DHT22;7908;51.688;7.130;2023-09-19T01:01:14;14.80;99.90
15617;DHT22;7908;51.688;7.130;2023-09-19T01:03:44;14.80;99.90
15617;DHT22;7908;51.688;7.130;2023-09-19T01:06:14;14.80;99.90
15617;DHT22;7908;51.688;7.130;2023-09-19T01:08:44;14.90;99.90
15617;DHT22;7908;51.688;7.130;2023-09-19T01:11:17;14.90;99.90
15617;DHT22;7908;51.688;7.130;2023-09-19T01:13:56;14.90;99.90
15617;DHT22;7908;51.688;7.130;2023-09-19T01:16:33;14.80;99.90
15617;DHT22;7908;51.688;7.130;2023-09-19T01:19:34;14.80;99.90
15617;DHT22;7908;51.688;7.130;2023-09-19T01:22:19;14.80;99.90
15617;DHT22;7908;51.688;7.130;2023-09-19T01:28:14;14.80;99.90
15617;DHT22;7908;51.688;7.130;2023-09-19T01:30:47;14.80;99.90
15617;DHT22;7908;51.688;7.130;2023-09-19T01:33:21;14.80;99.90
15617;DHT22;7908;51.688;7.130;2023-09-19T01:35:50;14.70;99.90
15617;DHT22;7908;51.688;7.130;2023-09-19T01:38:20;14.70;99.90
15617;DHT22;7908;51.688;7.130;2023-09-19T01:40:56;14.70;99.90
15617;DHT22;7908;51.688;7.130;2023-09-19T01:43:31;14.60;99.90
15617;DHT22;7908;51.688;7.130;2023-09-19T01:46:09;14.60;99.90
15617;DHT22;7908;51.688;7.130;2023-09-19T01:48:43;14.60;99.90
15617;DHT22;7908;51.688;7.130;2023-09-19T01:51:20;14.60;99.90
15617;DHT22;7908;51.688;7.130;2023-09-19T01:53:53;14.60;99.90
15617;DHT22;7908;51.688;7.130;2023-09-19T01:56:29;14.50;99.90
15617;DHT22;7908;51.688;7.130;2023-09-19T01:59:07;14.50;99.90
15617;DHT22;7908;51.688;7.130;2023-09-19T02:01:39;14.40;99.90
15617;DHT22;7908;51.688;7.130;2023-09-19T02:04:08;14.40;99.90
15617;DHT22;7908;51.688;7.130;2023-09-19T02:06:39;14.40;99.90
15617;DHT22;7908;51.688;7.130;2023-09-19T02:09:08;14.40;99.90
15617;DHT22;7908;51.688;7.130;2023-09-19T02:11:37;14.40;99.90
15617;DHT22;7908;51.688;7.130;2023-09-19T02:14:05;14.40;99.90
15617;DHT22;7908;51.688;7.130;2023-09-19T02:16:35;14.30;99.90
15617;DHT22;7908;51.688;7.130;2023-09-19T02:19:06;14.30;99.90
15617;DHT22;7908;51.688;7.130;2023-09-19T02:21:35;14.30;99.90
15617;DHT22;7908;51.688;7.130;2023-09-19T02:24:05;14.20;99.90
15617;DHT22;7908;51.688;7.130;2023-09-19T02:26:34;14.20;99.90
15617;DHT22;7908;51.688;7.130;2023-09-19T02:29:03;14.20;99.90
15617;DHT22;7908;51.688;7.130;2023-09-19T02:31:32;14.20;99.90
15617;DHT22;7908;51.688;7.130;2023-09-19T02:34:01;14.20;99.90
15617;DHT22;7908;51.688;7.130;2023-09-19T02:36:36;14.20;99.90
15617;DHT22;7908;51.688;7.130;2023-09-19T02:39:04;14.20;99.90
15617;DHT22;7908;51.688;7.130;2023-09-19T02:41:35;14.10;99.90
15617;DHT22;7908;51.688;7.130;2023-09-19T02:44:04;14.10;99.90
15617;DHT22;7908;51.688;7.130;2023-09-19T02:46:34;14.10;99.90
15617;DHT22;7908;51.688;7.130;2023-09-19T02:49:04;14.10;99.90
15617;DHT22;7908;51.688;7.130;2023-09-19T02:51:35;14.10;99.90
15617;DHT22;7908;51.688;7.130;2023-09-19T02:54:03;14.00;99.90
15617;DHT22;7908;51.688;7.130;2023-09-19T02:56:32;14.00;99.90
15617;DHT22;7908;51.688;7.130;2023-09-19T02:59:03;14.00;99.90
15617;DHT22;7908;51.688;7.130;2023-09-19T03:01:32;13.90;99.90
15617;DHT22;7908;51.688;7.130;2023-09-19T03:04:02;13.90;99.90
15617;DHT22;7908;51.688;7.130;2023-09-19T03:06:35;13.90;99.90
15617;DHT22;7908;51.688;7.130;2023-09-19T03:09:03;13.90;99.90
15617;DHT22;7908;51.688;7.130;2023-09-19T03:11:34;13.90;99.90
15617;DHT22;7908;51.688;7.130;2023-09-19T03:14:03;13.90;99.90
15617;DHT22;7908;51.688;7.130;2023-09-19T03:16:32;13.90;99.90
15617;DHT22;7908;51.688;7.130;2023-09-19T03:19:00;13.90;99.90
15617;DHT22;7908;51.688;7.130;2023-09-19T03:21:29;13.90;99.90
15617;DHT22;7908;51.688;7.130;2023-09-19T03:23:58;13.90;99.90
15617;DHT22;7908;51.688;7.130;2023-09-19T03:26:28;13.90;99.90
15617;DHT22;7908;51.688;7.130;2023-09-19T03:28:56;13.90;99.90
15617;DHT22;7908;51.688;7.130;2023-09-19T03:31:25;13.90;99.90
15617;DHT22;7908;51.688;7.130;2023-09-19T03:33:53;13.90;99.90
15617;DHT22;7908;51.688;7.130;2023-09-19T03:36:22;13.90;99.90
15617;DHT22;7908;51.688;7.130;2023-09-19T03:38:50;13.90;99.90
15617;DHT22;7908;51.688;7.130;2023-09-19T03:41:20;13.90;99.90
15617;DHT22;7908;51.688;7.130;2023-09-19T03:43:49;13.80;99.90
15617;DHT22;7908;51.688;7.130;2023-09-19T03:46:17;13.80;99.90
15617;DHT22;7908;51.688;7.130;2023-09-19T03:48:46;13.80;99.90
15617;DHT22;7908;51.688;7.130;2023-09-19T03:51:15;13.80;99.90
15617;DHT22;7908;51.688;7.130;2023-09-19T03:53:43;13.80;99.90
15617;DHT22;7908;51.688;7.130;2023-09-19T03:56:12;13.80;99.90
15617;DHT22;7908;51.688;7.130;2023-09-19T03:58:41;13.80;99.90
15617;DHT22;7908;51.688;7.130;2023-09-19T04:01:10;13.80;99.90
15617;DHT22;7908;51.688;7.130;2023-09-19T04:03:40;13.80;99.90
15617;DHT22;7908;51.688;7.130;2023-09-19T04:06:15;13.70;99.90
15617;DHT22;7908;51.688;7.130;2023-09-19T04:08:44;13.70;99.90
15617;DHT22;7908;51.688;7.130;2023-09-19T04:11:14;13.70;99.90
15617;DHT22;7908;51.688;7.130;2023-09-19T04:13:44;13.70;99.90
15617;DHT22;7908;51.688;7.130;2023-09-19T04:16:12;13.70;99.90
15617;DHT22;7908;51.688;7.130;2023-09-19T04:18:41;13.70;99.90
15617;DHT22;7908;51.688;7.130;2023-09-19T04:21:09;13.70;99.90
15617;DHT22;7908;51.688;7.130;2023-09-19T04:23:38;13.70;99.90
15617;DHT22;7908;51.688;7.130;2023-09-19T04:26:07;13.70;99.90
15617;DHT22;7908;51.688;7.130;2023-09-19T04:28:36;13.70;99.90
15617;DHT22;7908;51.688;7.130;2023-09-19T04:31:07;13.70;99.90
15617;DHT22;7908;51.688;7.130;2023-09-19T04:33:37;13.80;99.90
15617;DHT22;7908;51.688;7.130;2023-09-19T04:36:06;13.80;99.90
15617;DHT22;7908;51.688;7.130;2023-09-19T04:38:55;13.80;99.90
15617;DHT22;7908;51.688;7.130;2023-09-19T04:41:23;13.80;99.90
15617;DHT22;7908;51.688;7.130;2023-09-19T04:43:52;13.80;99.90
15617;DHT22;7908;51.688;7.130;2023-09-19T04:46:22;13.80;99.90
15617;DHT22;7908;51.688;7.130;2023-09-19T04:48:51;13.80;99.90
15617;DHT22;7908;51.688;7.130;2023-09-19T04:51:19;13.80;99.90
15617;DHT22;7908;51.688;7.130;2023-09-19T04:53:47;13.80;99.90
15617;DHT22;7908;51.688;7.130;2023-09-19T04:56:16;13.80;99.90
15617;DHT22;7908;51.688;7.130;2023-09-19T04:58:45;13.80;99.90
15617;DHT22;7908;51.688;7.130;2023-09-19T05:01:13;13.80;99.90
15617;DHT22;7908;51.688;7.130;2023-09-19T05:03:44;13.80;99.90
15617;DHT22;7908;51.688;7.130;2023-09-19T05:06:16;13.80;99.90
15617;DHT22;7908;51.688;7.130;2023-09-19T05:08:45;13.90;99.90
15617;DHT22;7908;51.688;7.130;2023-09-19T05:11:13;13.90;99.90
15617;DHT22;7908;51.688;7.130;2023-09-19T05:13:42;13.90;99.90
15617;DHT22;7908;51.688;7.130;2023-09-19T05:16:10;13.90;99.90
15617;DHT22;7908;51.688;7.130;2023-09-19T05:18:39;13.90;99.90
15617;DHT22;7908;51.688;7.130;2023-09-19T05:21:09;14.00;99.90
15617;DHT22;7908;51.688;7.130;2023-09-19T05:23:38;14.00;99.90
15617;DHT22;7908;51.688;7.130;2023-09-19T05:26:07;14.00;99.90
15617;DHT22;7908;51.688;7.130;2023-09-19T05:28:38;14.00;99.90
15617;DHT22;7908;51.688;7.130;2023-09-19T05:31:06;14.00;99.90
15617;DHT22;7908;51.688;7.130;2023-09-19T05:33:38;14.00;99.90
15617;DHT22;7908;51.688;7.130;2023-09-19T05:36:09;14.10;99.90
15617;DHT22;7908;51.688;7.130;2023-09-19T05:38:39;14.10;99.90
15617;DHT22;7908;51.688;7.130;2023-09-19T05:41:09;14.20;99.90
15617;DHT22;7908;51.688;7.130;2023-09-19T05:43:41;14.20;99.90
15617;DHT22;7908;51.688;7.130;2023-09-19T05:46:10;14.20;99.90
15617;DHT22;7908;51.688;7.130;2023-09-19T05:48:39;14.20;99.90
15617;DHT22;7908;51.688;7.130;2023-09-19T05:51:10;14.20;99.90
15617;DHT22;7908;51.688;7.130;2023-09-19T05:53:38;14.20;99.90
15617;DHT22;7908;51.688;7.130;2023-09-19T05:56:09;14.30;99.90
15617;DHT22;7908;51.688;7.130;2023-09-19T05:58:38;14.30;99.90
15617;DHT22;7908;51.688;7.130;2023-09-19T06:01:08;14.30;99.90
15617;DHT22;7908;51.688;7.130;2023-09-19T06:03:40;14.40;99.90
15617;DHT22;7908;51.688;7.130;2023-09-19T06:06:10;14.50;99.90
15617;DHT22;7908;51.688;7.130;2023-09-19T06:08:39;14.50;99.90
15617;DHT22;7908;51.688;7.130;2023-09-19T06:11:08;14.60;99.90
15617;DHT22;7908;51.688;7.130;2023-09-19T06:13:37;14.60;99.90
15617;DHT22;7908;51.688;7.130;2023-09-19T06:16:07;14.70;99.90
15617;DHT22;7908;51.688;7.130;2023-09-19T06:18:39;14.70;99.90
15617;DHT22;7908;51.688;7.130;2023-09-19T06:21:07;14.70;99.90
15617;DHT22;7908;51.688;7.130;2023-09-19T06:23:37;14.80;99.90
15617;DHT22;7908;51.688;7.130;2023-09-19T06:26:07;14.80;99.90
15617;DHT22;7908;51.688;7.130;2023-09-19T06:28:36;14.90;99.90
15617;DHT22;7908;51.688;7.130;2023-09-19T06:31:05;14.90;99.90
15617;DHT22;7908;51.688;7.130;2023-09-19T06:33:37;14.90;99.90
15617;DHT22;7908;51.688;7.130;2023-09-19T06:36:07;15.00;99.90
15617;DHT22;7908;51.688;7.130;2023-09-19T06:38:37;15.00;99.90
15617;DHT22;7908;51.688;7.130;2023-09-19T06:41:06;15.10;99.90
15617;DHT22;7908;51.688;7.130;2023-09-19T06:43:36;15.10;99.90
15617;DHT22;7908;51.688;7.130;2023-09-19T06:46:05;15.10;99.90
15617;DHT22;7908;51.688;7.130;2023-09-19T06:48:34;15.20;99.90
15617;DHT22;7908;51.688;7.130;2023-09-19T06:51:03;15.20;99.90
15617;DHT22;7908;51.688;7.130;2023-09-19T06:53:32;15.20;99.90
15617;DHT22;7908;51.688;7.130;2023-09-19T06:56:11;15.20;99.90
15617;DHT22;7908;51.688;7.130;2023-09-19T06:58:46;15.20;99.90
15617;DHT22;7908;51.688;7.130;2023-09-19T07:01:16;15.30;99.90
15617;DHT22;7908;51.688;7.130;2023-09-19T07:03:46;15.30;99.90
15617;DHT22;7908;51.688;7.130;2023-09-19T07:06:20;15.30;99.90
15617;DHT22;7908;51.688;7.130;2023-09-19T07:08:50;15.40;99.90
15617;DHT22;7908;51.688;7.130;2023-09-19T07:11:21;15.40;99.90
15617;DHT22;7908;51.688;7.130;2023-09-19T07:13:53;15.50;99.90
15617;DHT22;7908;51.688;7.130;2023-09-19T07:16:25;15.50;99.90
15617;DHT22;7908;51.688;7.130;2023-09-19T07:18:58;15.50;99.90
15617;DHT22;7908;51.688;7.130;2023-09-19T07:21:29;15.60;99.90
15617;DHT22;7908;51.688;7.130;2023-09-19T07:23:59;15.60;99.90
15617;DHT22;7908;51.688;7.130;2023-09-19T07:26:32;15.70;99.90
15617;DHT22;7908;51.688;7.130;2023-09-19T07:29:07;15.80;99.90
15617;DHT22;7908;51.688;7.130;2023-09-19T07:31:37;15.70;99.90
15617;DHT22;7908;51.688;7.130;2023-09-19T07:34:10;15.80;99.90
15617;DHT22;7908;51.688;7.130;2023-09-19T07:36:49;15.90;99.90
15617;DHT22;7908;51.688;7.130;2023-09-19T07:39:19;15.90;99.90
15617;DHT22;7908;51.688;7.130;2023-09-19T07:41:51;16.00;99.90
15617;DHT22;7908;51.688;7.130;2023-09-19T07:44:22;16.00;99.90
15617;DHT22;7908;51.688;7.130;2023-09-19T07:46:53;16.10;99.90
15617;DHT22;7908;51.688;7.130;2023-09-19T07:49:22;16.10;99.90
15617;DHT22;7908;51.688;7.130;2023-09-19T07:51:51;16.10;99.90
15617;DHT22;7908;51.688;7.130;2023-09-19T07:54:21;16.10;99.90
15617;DHT22;7908;51.688;7.130;2023-09-19T07:56:52;16.20;99.90
15617;DHT22;7908;51.688;7.130;2023-09-19T07:59:26;16.20;99.90
15617;DHT22;7908;51.688;7.130;2023-09-19T08:01:55;16.30;99.90
15617;DHT22;7908;51.688;7.130;2023-09-19T08:04:26;16.30;99.90
15617;DHT22;7908;51.688;7.130;2023-09-19T08:06:57;16.30;99.90
15617;DHT22;7908;51.688;7.130;2023-09-19T08:09:29;16.40;99.90
15617;DHT22;7908;51.688;7.130;2023-09-19T08:12:02;16.50;99.90
15617;DHT22;7908;51.688;7.130;2023-09-19T08:14:32;16.50;99.90
15617;DHT22;7908;51.688;7.130;2023-09-19T08:17:01;16.50;99.90
15617;DHT22;7908;51.688;7.130;2023-09-19T08:19:36;16.50;99.90
15617;DHT22;7908;51.688;7.130;2023-09-19T08:22:19;16.60;99.90
15617;DHT22;7908;51.688;7.130;2023-09-19T08:24:51;16.60;99.90
15617;DHT22;7908;51.688;7.130;2023-09-19T08:27:21;16.70;99.90
15617;DHT22;7908;51.688;7.130;2023-09-19T08:29:54;16.80;99.90
15617;DHT22;7908;51.688;7.130;2023-09-19T08:32:23;16.80;99.90
15617;DHT22;7908;51.688;7.130;2023-09-19T08:34:55;16.80;99.90
15617;DHT22;7908;51.688;7.130;2023-09-19T08:37:28;16.90;99.90
15617;DHT22;7908;51.688;7.130;2023-09-19T08:39:56;16.90;99.90
15617;DHT22;7908;51.688;7.130;2023-09-19T08:42:27;17.00;99.90
15617;DHT22;7908;51.688;7.130;2023-09-19T08:45:00;17.00;99.90
15617;DHT22;7908;51.688;7.130;2023-09-19T08:47:36;17.20;99.90
15617;DHT22;7908;51.688;7.130;2023-09-19T08:50:19;17.20;99.90
15617;DHT22;7908;51.688;7.130;2023-09-19T08:52:52;17.30;99.90
15617;DHT22;7908;51.688;7.130;2023-09-19T08:55:28;17.40;99.90
15617;DHT22;7908;51.688;7.130;2023-09-19T08:58:03;17.40;99.90
15617;DHT22;7908;51.688;7.130;2023-09-19T09:00:36;17.40;99.90
15617;DHT22;7908;51.688;7.130;2023-09-19T09:03:09;17.40;99.90
15617;DHT22;7908;51.688;7.130;2023-09-19T09:05:42;17.40;99.90
15617;DHT22;7908;51.688;7.130;2023-09-19T09:08:16;17.40;99.90
15617;DHT22;7908;51.688;7.130;2023-09-19T09:10:49;17.50;99.90
15617;DHT22;7908;51.688;7.130;2023-09-19T09:13:25;17.50;99.90
15617;DHT22;7908;51.688;7.130;2023-09-19T09:16:01;17.50;99.90
15617;DHT22;7908;51.688;7.130;2023-09-19T09:18:32;17.50;99.90
15617;DHT22;7908;51.688;7.130;2023-09-19T09:21:05;17.60;99.90
15617;DHT22;7908;51.688;7.130;2023-09-19T09:23:40;17.70;99.90
15617;DHT22;7908;51.688;7.130;2023-09-19T09:26:11;17.80;99.90
15617;DHT22;7908;51.688;7.130;2023-09-19T09:28:46;17.80;99.90
15617;DHT22;7908;51.688;7.130;2023-09-19T09:31:23;17.90;99.90
15617;DHT22;7908;51.688;7.130;2023-09-19T09:33:57;18.00;99.90
15617;DHT22;7908;51.688;7.130;2023-09-19T09:36:36;18.00;99.90
15617;DHT22;7908;51.688;7.130;2023-09-19T09:39:09;18.00;99.90
15617;DHT22;7908;51.688;7.130;2023-09-19T09:41:51;18.00;99.90
15617;DHT22;7908;51.688;7.130;2023-09-19T09:44:26;18.00;99.90
15617;DHT22;7908;51.688;7.130;2023-09-19T09:47:09;18.00;99.90
15617;DHT22;7908;51.688;7.130;2023-09-19T09:49:56;18.00;99.90
15617;DHT22;7908;51.688;7.130;2023-09-19T09:52:50;18.00;99.90
15617;DHT22;7908;51.688;7.130;2023-09-19T09:55:20;18.00;99.90
15617;DHT22;7908;51.688;7.130;2023-09-19T09:58:18;18.10;99.90
15617;DHT22;7908;51.688;7.130;2023-09-19T10:01:00;18.10;99.90
15617;DHT22;7908;51.688;7.130;2023-09-19T10:03:44;18.10;99.90
15617;DHT22;7908;51.688;7.130;2023-09-19T10:06:26;18.20;99.90
15617;DHT22;7908;51.688;7.130;2023-09-19T10:09:18;18.30;99.90
15617;DHT22;7908;51.688;7.130;2023-09-19T10:12:04;18.40;99.90
15617;DHT22;7908;51.688;7.130;2023-09-19T10:14:45;18.50;99.90
15617;DHT22;7908;51.688;7.130;2023-09-19T10:17:20;18.60;99.90
15617;DHT22;7908;51.688;7.130;2023-09-19T10:19:57;18.60;99.90
15617;DHT22;7908;51.688;7.130;2023-09-19T10:22:43;18.60;99.90
15617;DHT22;7908;51.688;7.130;2023-09-19T10:25:14;18.60;99.90
15617;DHT22;7908;51.688;7.130;2023-09-19T10:27:55;18.70;99.90
15617;DHT22;7908;51.688;7.130;2023-09-19T10:30:28;18.70;99.90
15617;DHT22;7908;51.688;7.130;2023-09-19T10:33:06;18.70;99.90
15617;DHT22;7908;51.688;7.130;2023-09-19T10:35:40;18.60;99.90
15617;DHT22;7908;51.688;7.130;2023-09-19T10:38:19;18.60;99.90
15617;DHT22;7908;51.688;7.130;2023-09-19T10:40:54;18.70;99.90
15617;DHT22;7908;51.688;7.130;2023-09-19T10:43:33;18.70;99.90
15617;DHT22;7908;51.688;7.130;2023-09-19T10:46:14;18.80;99.90
15617;DHT22;7908;51.688;7.130;2023-09-19T10:48:54;18.80;99.90
15617;DHT22;7908;51.688;7.130;2023-09-19T10:51:38;18.80;99.90
15617;DHT22;7908;51.688;7.130;2023-09-19T10:54:13;18.80;99.90
15617;DHT22;7908;51.688;7.130;2023-09-19T10:56:48;18.80;99.90
15617;DHT22;7908;51.688;7.130;2023-09-19T10:59:35;19.00;99.90
15617;DHT22;7908;51.688;7.130;2023-09-19T11:02:17;19.10;99.90
15617;DHT22;7908;51.688;7.130;2023-09-19T11:04:50;19.00;99.90
15617;DHT22;7908;51.688;7.130;2023-09-19T11:07:24;19.00;99.90
15617;DHT22;7908;51.688;7.130;2023-09-19T11:10:06;18.90;99.90
15617;DHT22;7908;51.688;7.130;2023-09-19T11:12:55;18.90;99.90
15617;DHT22;7908;51.688;7.130;2023-09-19T11:16:03;18.90;99.90
15617;DHT22;7908;51.688;7.130;2023-09-19T11:18:57;19.00;99.90
15617;DHT22;7908;51.688;7.130;2023-09-19T11:21:56;19.10;99.90
15617;DHT22;7908;51.688;7.130;2023-09-19T11:24:31;19.00;99.90
15617;DHT22;7908;51.688;7.130;2023-09-19T11:27:16;19.10;99.90
15617;DHT22;7908;51.688;7.130;2023-09-19T11:30:28;19.10;99.90
15617;DHT22;7908;51.688;7.130;2023-09-19T11:33:18;19.00;99.90
15617;DHT22;7908;51.688;7.130;2023-09-19T11:36:01;19.10;99.90
15617;DHT22;7908;51.688;7.130;2023-09-19T11:39:00;19.20;99.90
15617;DHT22;7908;51.688;7.130;2023-09-19T11:41:48;19.30;99.90
15617;DHT22;7908;51.688;7.130;2023-09-19T11:44:37;19.40;99.90
15617;DHT22;7908;51.688;7.130;2023-09-19T11:47:24;19.40;99.90
15617;DHT22;7908;51.688;7.130;2023-09-19T11:50:01;19.40;99.90
15617;DHT22;7908;51.688;7.130;2023-09-19T11:52:33;19.40;99.90
15617;DHT22;7908;51.688;7.130;2023-09-19T11:55:16;19.40;99.90
15617;DHT22;7908;51.688;7.130;2023-09-19T11:57:56;19.50;99.90
15617;DHT22;7908;51.688;7.130;2023-09-19T12:00:33;19.60;99.90
15617;DHT22;7908;51.688;7.130;2023-09-19T12:03:16;19.60;99.90
15617;DHT22;7908;51.688;7.130;2023-09-19T12:05:49;19.60;99.90
15617;DHT22;7908;51.688;7.130;2023-09-19T12:08:38;19.60;99.90
15617;DHT22;7908;51.688;7.130;2023-09-19T12:11:21;19.60;99.90
15617;DHT22;7908;51.688;7.130;2023-09-19T12:14:01;19.60;99.90
15617;DHT22;7908;51.688;7.130;2023-09-19T12:16:32;19.70;99.90
15617;DHT22;7908;51.688;7.130;2023-09-19T12:19:24;19.90;99.90
15617;DHT22;7908;51.688;7.130;2023-09-19T12:22:01;19.90;99.90
15617;DHT22;7908;51.688;7.130;2023-09-19T12:24:37;19.90;99.90
15617;DHT22;7908;51.688;7.130;2023-09-19T12:27:14;19.90;99.90
15617;DHT22;7908;51.688;7.130;2023-09-19T12:29:46;19.90;99.90
15617;DHT22;7908;51.688;7.130;2023-09-19T12:32:34;19.90;99.90
15617;DHT22;7908;51.688;7.130;2023-09-19T12:35:10;19.90;99.90
15617;DHT22;7908;51.688;7.130;2023-09-19T12:37:43;20.00;99.90
15617;DHT22;7908;51.688;7.130;2023-09-19T12:40:23;20.00;99.90
15617;DHT22;7908;51.688;7.130;2023-09-19T12:43:07;20.10;99.90
15617;DHT22;7908;51.688;7.130;2023-09-19T12:45:44;20.20;99.90
15617;DHT22;7908;51.688;7.130;2023-09-19T12:48:27;20.30;99.90
15617;DHT22;7908;51.688;7.130;2023-09-19T12:51:20;20.40;99.90
15617;DHT22;7908;51.688;7.130;2023-09-19T12:53:59;20.40;99.90
15617;DHT22;7908;51.688;7.130;2023-09-19T12:56:40;20.40;99.90
15617;DHT22;7908;51.688;7.130;2023-09-19T12:59:18;20.30;99.90
15617;DHT22;7908;51.688;7.130;2023-09-19T13:02:12;20.30;99.90
15617;DHT22;7908;51.688;7.130;2023-09-19T13:04:54;20.30;99.90
15617;DHT22;7908;51.688;7.130;2023-09-19T13:07:46;20.20;99.90
15617;DHT22;7908;51.688;7.130;2023-09-19T13:10:21;20.30;99.90
15617;DHT22;7908;51.688;7.130;2023-09-19T13:13:23;20.40;99.90
15617;DHT22;7908;51.688;7.130;2023-09-19T13:16:07;20.40;99.90
15617;DHT22;7908;51.688;7.130;2023-09-19T13:18:56;20.30;99.90
15617;DHT22;7908;51.688;7.130;2023-09-19T13:21:42;20.30;99.90
15617;DHT22;7908;51.688;7.130;2023-09-19T13:24:24;20.20;99.90
15617;DHT22;7908;51.688;7.130;2023-09-19T13:27:08;20.20;99.90
15617;DHT22;7908;51.688;7.130;2023-09-19T13:29:38;20.20;99.90
15617;DHT22;7908;51.688;7.130;2023-09-19T13:32:13;20.20;99.90
15617;DHT22;7908;51.688;7.130;2023-09-19T13:34:51;20.20;99.90
15617;DHT22;7908;51.688;7.130;2023-09-19T13:37:29;20.10;99.90
15617;DHT22;7908;51.688;7.130;2023-09-19T13:40:00;20.20;99.90
15617;DHT22;7908;51.688;7.130;2023-09-19T13:42:35;20.20;99.90
15617;DHT22;7908;51.688;7.130;2023-09-19T13:45:12;20.30;99.90
15617;DHT22;7908;51.688;7.130;2023-09-19T13:47:51;20.30;99.90
15617;DHT22;7908;51.688;7.130;2023-09-19T13:50:25;20.40;99.90
15617;DHT22;7908;51.688;7.130;2023-09-19T13:52:57;20.50;99.90
15617;DHT22;7908;51.688;7.130;2023-09-19T13:55:33;20.50;99.90
15617;DHT22;7908;51.688;7.130;2023-09-19T13:58:07;20.50;99.90
15617;DHT22;7908;51.688;7.130;2023-09-19T14:00:43;20.60;99.90
15617;DHT22;7908;51.688;7.130;2023-09-19T14:03:17;20.50;99.90
15617;DHT22;7908;51.688;7.130;2023-09-19T14:05:48;20.40;99.90
15617;DHT22;7908;51.688;7.130;2023-09-19T14:08:21;20.40;99.90
15617;DHT22;7908;51.688;7.130;2023-09-19T14:10:57;20.40;99.90
15617;DHT22;7908;51.688;7.130;2023-09-19T14:13:27;20.40;99.90
15617;DHT22;7908;51.688;7.130;2023-09-19T14:16:04;20.40;99.90
15617;DHT22;7908;51.688;7.130;2023-09-19T14:18:41;20.40;99.90
15617;DHT22;7908;51.688;7.130;2023-09-19T14:21:12;20.40;99.90
15617;DHT22;7908;51.688;7.130;2023-09-19T14:23:56;20.40;99.90
15617;DHT22;7908;51.688;7.130;2023-09-19T14:26:37;20.40;99.90
15617;DHT22;7908;51.688;7.130;2023-09-19T14:29:13;20.40;99.90
15617;DHT22;7908;51.688;7.130;2023-09-19T14:31:48;20.40;99.90
15617;DHT22;7908;51.688;7.130;2023-09-19T14:34:29;20.40;99.90
15617;DHT22;7908;51.688;7.130;2023-09-19T14:37:03;20.30;99.90
15617;DHT22;7908;51.688;7.130;2023-09-19T14:39:36;20.20;99.90
15617;DHT22;7908;51.688;7.130;2023-09-19T14:42:15;20.10;99.90
15617;DHT22;7908;51.688;7.130;2023-09-19T14:44:53;20.10;99.90
15617;DHT22;7908;51.688;7.130;2023-09-19T14:47:27;20.00;99.90
15617;DHT22;7908;51.688;7.130;2023-09-19T14:50:05;20.00;99.90
15617;DHT22;7908;51.688;7.130;2023-09-19T14:52:43;20.00;99.90
15617;DHT22;7908;51.688;7.130;2023-09-19T14:55:15;20.00;99.90
15617;DHT22;7908;51.688;7.130;2023-09-19T14:57:53;20.00;99.90
15617;DHT22;7908;51.688;7.130;2023-09-19T15:00:25;20.10;99.90
15617;DHT22;7908;51.688;7.130;2023-09-19T15:03:01;20.10;99.90
15617;DHT22;7908;51.688;7.130;2023-09-19T15:05:36;20.00;99.90
15617;DHT22;7908;51.688;7.130;2023-09-19T15:08:09;20.00;99.90
15617;DHT22;7908;51.688;7.130;2023-09-19T15:10:39;20.00;99.90
15617;DHT22;7908;51.688;7.130;2023-09-19T15:13:12;20.00;99.90
15617;DHT22;7908;51.688;7.130;2023-09-19T15:15:49;20.00;99.90
15617;DHT22;7908;51.688;7.130;2023-09-19T15:18:21;20.00;99.90
15617;DHT22;7908;51.688;7.130;2023-09-19T15:21:01;20.00;99.90
15617;DHT22;7908;51.688;7.130;2023-09-19T15:23:47;20.00;99.90
15617;DHT22;7908;51.688;7.130;2023-09-19T15:26:29;20.10;99.90
15617;DHT22;7908;51.688;7.130;2023-09-19T15:29:09;20.00;99.90
15617;DHT22;7908;51.688;7.130;2023-09-19T15:31:42;20.00;99.90
15617;DHT22;7908;51.688;7.130;2023-09-19T15:34:18;19.90;99.90
15617;DHT22;7908;51.688;7.130;2023-09-19T15:36:54;19.90;99.90
15617;DHT22;7908;51.688;7.130;2023-09-19T15:39:34;19.90;99.90
15617;DHT22;7908;51.688;7.130;2023-09-19T15:42:09;19.90;99.90
15617;DHT22;7908;51.688;7.130;2023-09-19T15:44:42;19.90;99.90
15617;DHT22;7908;51.688;7.130;2023-09-19T15:47:20;19.90;99.90
15617;DHT22;7908;51.688;7.130;2023-09-19T15:49:56;19.90;99.90
15617;DHT22;7908;51.688;7.130;2023-09-19T15:52:34;19.80;99.90
15617;DHT22;7908;51.688;7.130;2023-09-19T15:55:08;19.70;99.90
15617;DHT22;7908;51.688;7.130;2023-09-19T15:57:53;19.70;99.90
15617;DHT22;7908;51.688;7.130;2023-09-19T16:00:35;19.60;99.90
15617;DHT22;7908;51.688;7.130;2023-09-19T16:03:18;19.60;99.90
15617;DHT22;7908;51.688;7.130;2023-09-19T16:05:59;19.60;99.90
15617;DHT22;7908;51.688;7.130;2023-09-19T16:08:32;19.50;99.90
15617;DHT22;7908;51.688;7.130;2023-09-19T16:11:05;19.50;99.90
15617;DHT22;7908;51.688;7.130;2023-09-19T16:13:40;19.60;99.90
15617;DHT22;7908;51.688;7.130;2023-09-19T16:16:13;19.50;99.90
15617;DHT22;7908;51.688;7.130;2023-09-19T16:18:48;19.50;99.90
15617;DHT22;7908;51.688;7.130;2023-09-19T16:21:23;19.50;99.90
15617;DHT22;7908;51.688;7.130;2023-09-19T16:23:59;19.50;99.90
15617;DHT22;7908;51.688;7.130;2023-09-19T16:26:48;19.50;99.90
15617;DHT22;7908;51.688;7.130;2023-09-19T16:30:00;19.50;99.90
15617;DHT22;7908;51.688;7.130;2023-09-19T16:32:42;19.50;99.90
15617;DHT22;7908;51.688;7.130;2023-09-19T16:35:14;19.50;99.90